Time;durP1;ratioP1;P1;durP2;ratioP2;P2;SDS_P1;SDS_P2;PMS_P1;PMS_P2;Temp;Humidity;BMP_temperature;BMP_pressure;BME280_temperature;BME280_humidity;BME280_pressure;Samples;Min_cycle;Max_cycle;Signal;HPM_P1;HPM_P2
2021/12/08 00:01:16;;;;;;;1.58;0.40;;;24.30;63.10;;;;;;4155392;28;19921;-59
2021/12/08 00:03:19;;;;;;;1.92;0.90;;;24.30;63.20;;;;;;4151399;28;20123;-59
2021/12/08 00:05:22;;;;;;;3.47;0.98;;;24.30;63.20;;;;;;4162633;28;20052;-58
2021/12/08 00:07:24;;;;;;;3.22;1.00;;;24.30;63.20;;;;;;4161042;28;20515;-59
2021/12/08 00:09:34;;;;;;;4.35;0.90;;;24.40;63.00;;;;;;4172917;28;20087;-57
2021/12/08 00:13:56;;;;;;;2.95;1.00;;;24.40;63.00;;;;;;4160369;28;20405;-56
2021/12/08 00:16:02;;;;;;;2.28;0.73;;;24.40;63.00;;;;;;4151113;28;20060;-55
2021/12/08 00:18:06;;;;;;;6.85;0.90;;;24.40;63.10;;;;;;4146406;28;20048;-50
2021/12/08 00:20:09;;;;;;;1.30;0.70;;;24.40;63.10;;;;;;4142682;28;20052;-56
2021/12/08 00:22:11;;;;;;;2.33;0.93;;;24.40;63.00;;;;;;4163324;28;20048;-51
2021/12/08 00:24:13;;;;;;;1.85;0.70;;;24.40;63.00;;;;;;4169418;28;20048;-56
2021/12/08 00:26:15;;;;;;;0.82;0.47;;;24.40;62.90;;;;;;4162561;28;20755;-57
2021/12/08 00:28:18;;;;;;;1.65;0.80;;;24.40;62.80;;;;;;4163665;28;20052;-58
2021/12/08 00:30:21;;;;;;;2.13;0.68;;;24.40;62.80;;;;;;4166019;28;20059;-57
2021/12/08 00:32:27;;;;;;;1.80;0.90;;;24.40;62.90;;;;;;4154121;28;20048;-61
2021/12/08 00:34:31;;;;;;;1.83;0.85;;;24.50;62.80;;;;;;4160520;28;20809;-55
2021/12/08 00:36:42;;;;;;;3.20;0.60;;;24.50;62.90;;;;;;4163883;28;20052;-57
2021/12/08 00:38:44;;;;;;;3.35;0.70;;;24.50;63.00;;;;;;4144122;28;20075;-58
2021/12/08 00:40:48;;;;;;;2.30;0.90;;;24.50;63.70;;;;;;4169198;28;20057;-60
2021/12/08 00:42:51;;;;;;;11.82;0.85;;;24.50;63.30;;;;;;4171694;28;20107;-61
2021/12/08 00:44:53;;;;;;;;;;;24.50;63.40;;;;;;4165860;28;20052;-59
2021/12/08 00:46:55;;;;;;;4.20;0.63;;;24.50;63.40;;;;;;4146374;28;19932;-60
2021/12/08 00:48:57;;;;;;;1.65;0.45;;;24.50;63.30;;;;;;4140764;28;20056;-60
2021/12/08 00:51:00;;;;;;;5.30;0.77;;;24.60;63.50;;;;;;4155574;28;20935;-59
2021/12/08 00:53:02;;;;;;;1.38;0.45;;;24.60;63.50;;;;;;4168231;28;20143;-60
2021/12/08 00:55:06;;;;;;;2.15;0.50;;;24.60;63.50;;;;;;4167679;28;20048;-58
2021/12/08 00:57:10;;;;;;;2.42;0.60;;;24.60;63.40;;;;;;4118209;28;20052;-59
2021/12/08 00:59:11;;;;;;;;;;;24.60;63.40;;;;;;4153935;28;20056;-61
2021/12/08 01:02:11;;;;;;;1.17;0.52;;;24.60;62.70;;;;;;4162777;27;20460;-61
2021/12/08 01:04:14;;;;;;;1.05;0.47;;;24.60;63.10;;;;;;4164414;28;20049;-61
2021/12/08 01:06:17;;;;;;;0.95;0.45;;;24.60;62.80;;;;;;4161606;28;20510;-64
2021/12/08 01:08:20;;;;;;;;;;;24.60;62.70;;;;;;4162709;28;20049;-61
2021/12/08 01:10:27;;;;;;;3.17;0.88;;;24.60;62.60;;;;;;4145045;28;19933;-64
2021/12/08 01:12:29;;;;;;;0.80;0.55;;;24.60;62.70;;;;;;4163828;28;21830;-60
2021/12/08 01:14:33;;;;;;;1.92;0.50;;;24.60;62.70;;;;;;4148032;28;20191;-61
2021/12/08 01:16:36;;;;;;;0.75;0.40;;;24.60;62.80;;;;;;4150227;28;20048;-61
2021/12/08 01:18:38;;;;;;;2.63;0.50;;;24.70;62.80;;;;;;4169972;28;20052;-60
2021/12/08 01:20:41;;;;;;;0.70;0.47;;;24.70;62.80;;;;;;4167278;28;20045;-61
2021/12/08 01:22:44;;;;;;;1.00;0.55;;;24.70;62.80;;;;;;4170296;28;20212;-60
2021/12/08 01:24:46;;;;;;;1.45;0.63;;;24.70;62.80;;;;;;4166725;28;20162;-63
2021/12/08 01:26:48;;;;;;;2.05;0.40;;;24.70;62.80;;;;;;4145962;28;20390;-61
2021/12/08 01:28:55;;;;;;;0.80;0.38;;;24.70;62.80;;;;;;4140077;28;20505;-61
2021/12/08 01:30:59;;;;;;;1.65;0.40;;;24.70;62.80;;;;;;4162477;28;21287;-60
2021/12/08 01:33:02;;;;;;;0.45;0.43;;;24.70;62.70;;;;;;4160756;28;20091;-61
2021/12/08 01:35:07;;;;;;;0.43;0.40;;;24.70;62.60;;;;;;4145130;28;20084;-60
2021/12/08 01:37:09;;;;;;;0.38;0.38;;;24.70;62.70;;;;;;4163431;28;20457;-59
2021/12/08 01:39:12;;;;;;;1.45;0.75;;;24.70;62.50;;;;;;4144691;28;20131;-59
2021/12/08 01:41:14;;;;;;;1.75;0.57;;;24.70;62.50;;;;;;4160177;28;20056;-59
2021/12/08 01:43:28;;;;;;;0.50;0.45;;;24.70;62.50;;;;;;4162336;28;20090;-61
2021/12/08 01:47:50;;;;;;;0.60;0.50;;;24.80;62.40;;;;;;4143343;28;19924;-61
2021/12/08 01:49:52;;;;;;;1.23;0.50;;;24.80;62.50;;;;;;4158778;28;20074;-60
2021/12/08 01:51:54;;;;;;;1.35;0.65;;;24.70;62.40;;;;;;4159299;28;20841;-60
2021/12/08 01:54:01;;;;;;;0.85;0.50;;;24.80;62.40;;;;;;4158130;28;22124;-59
2021/12/08 01:56:04;;;;;;;1.45;0.50;;;24.80;62.40;;;;;;4157672;28;20048;-59
2021/12/08 01:58:07;;;;;;;0.95;0.60;;;24.80;62.40;;;;;;4140794;28;20571;-60
2021/12/08 02:00:14;;;;;;;2.45;0.68;;;24.80;62.40;;;;;;4158340;28;20098;-60
2021/12/08 02:02:17;;;;;;;1.83;0.90;;;24.80;62.30;;;;;;4158167;28;20155;-60
2021/12/08 02:04:19;;;;;;;1.67;0.60;;;24.80;62.30;;;;;;4140801;28;20050;-60
2021/12/08 02:06:22;;;;;;;1.20;0.60;;;24.80;62.30;;;;;;4157000;28;20711;-59
2021/12/08 02:08:25;;;;;;;0.88;0.45;;;24.80;62.20;;;;;;4157867;28;21582;-60
2021/12/08 02:10:28;;;;;;;2.13;0.65;;;24.80;62.20;;;;;;4158432;28;21169;-61
2021/12/08 02:12:33;;;;;;;4.43;1.35;;;24.80;62.10;;;;;;4153395;28;20051;-59
2021/12/08 02:14:35;;;;;;;6.80;1.52;;;24.80;61.80;;;;;;4145363;28;20055;-58
2021/12/08 02:16:38;;;;;;;9.93;1.33;;;24.80;61.50;;;;;;4127678;28;20088;-58
2021/12/08 02:18:42;;;;;;;12.90;2.00;;;24.80;61.50;;;;;;4128572;28;20083;-59
2021/12/08 02:20:46;;;;;;;8.52;1.85;;;24.80;61.70;;;;;;4147797;28;20127;-60
2021/12/08 02:22:49;;;;;;;6.38;1.85;;;24.80;61.70;;;;;;4146678;28;20098;-61
2021/12/08 02:24:51;;;;;;;5.13;1.73;;;24.80;62.40;;;;;;4146670;28;20040;-60
2021/12/08 02:26:54;;;;;;;4.07;1.20;;;24.80;61.80;;;;;;4140442;28;20052;-58
2021/12/08 02:29:00;;;;;;;4.10;0.80;;;24.80;61.80;;;;;;4147214;28;20629;-59
2021/12/08 02:31:07;;;;;;;4.07;1.02;;;24.80;61.70;;;;;;4124162;28;20059;-60
2021/12/08 02:47:44;;;;;;;4.07;1.27;;;24.90;61.90;;;;;;4146233;28;20052;-59
2021/12/08 02:49:47;;;;;;;2.72;0.90;;;24.80;61.90;;;;;;4145990;28;20071;-61
2021/12/08 02:51:51;;;;;;;3.90;0.65;;;24.80;61.90;;;;;;4148321;28;20432;-60
2021/12/08 02:53:53;;;;;;;1.98;0.88;;;24.80;62.00;;;;;;4143363;28;20060;-60
2021/12/08 02:55:55;;;;;;;1.65;0.80;;;24.90;62.00;;;;;;4145080;28;20049;-61
2021/12/08 02:58:00;;;;;;;2.05;0.82;;;24.90;62.00;;;;;;4141885;28;20139;-59
2021/12/08 03:00:05;;;;;;;3.17;0.77;;;24.90;61.90;;;;;;4128645;28;20110;-59
2021/12/08 03:02:08;;;;;;;4.45;1.13;;;24.90;61.90;;;;;;4143190;28;20055;-60
2021/12/08 03:04:11;;;;;;;10.48;1.35;;;24.90;61.90;;;;;;4146975;28;20183;-60
2021/12/08 03:06:14;;;;;;;3.42;1.00;;;24.90;62.20;;;;;;4126429;28;20154;-58
2021/12/08 03:08:16;;;;;;;3.15;1.30;;;24.90;62.40;;;;;;4146159;28;20040;-59
2021/12/08 03:10:21;;;;;;;6.55;0.80;;;24.90;61.90;;;;;;4144954;28;20052;-59
2021/12/08 03:12:31;;;;;;;14.23;1.75;;;24.90;62.00;;;;;;4146138;28;20281;-58
2021/12/08 03:14:33;;;;;;;6.50;2.28;;;24.90;60.10;;;;;;4127527;28;20060;-59
2021/12/08 03:16:41;;;;;;;8.00;2.47;;;24.90;59.70;;;;;;4141372;28;20048;-58
2021/12/08 03:18:43;;;;;;;5.05;1.92;;;24.80;59.60;;;;;;4147390;28;20061;-58
2021/12/08 03:20:46;;;;;;;4.57;1.50;;;24.80;59.60;;;;;;4146784;28;20045;-59
2021/12/08 03:22:50;;;;;;;;;;;24.80;59.70;;;;;;4147825;28;20064;-59
2021/12/08 03:24:53;;;;;;;8.00;2.15;;;24.70;59.80;;;;;;4146107;28;19928;-59
2021/12/08 03:29:18;;;;;;;7.78;2.03;;;24.60;59.90;;;;;;4147673;28;20091;-59
2021/12/08 03:31:28;;;;;;;7.15;1.98;;;24.60;60.00;;;;;;4142934;28;21984;-58
2021/12/08 03:33:30;;;;;;;8.43;2.30;;;24.60;59.90;;;;;;4146170;28;20044;-58
2021/12/08 03:35:32;;;;;;;8.02;2.92;;;24.50;59.90;;;;;;4128177;28;20053;-59
2021/12/08 03:37:43;;;;;;;7.03;2.00;;;24.50;59.90;;;;;;4128011;28;20718;-59
2021/12/08 03:39:45;;;;;;;6.82;2.55;;;24.50;60.00;;;;;;4146920;28;20040;-59
2021/12/08 03:41:48;;;;;;;5.93;1.90;;;24.40;59.90;;;;;;4145979;28;20070;-59
2021/12/08 03:43:51;;;;;;;8.77;1.80;;;24.40;59.80;;;;;;4146053;28;20045;-57
2021/12/08 03:45:55;;;;;;;11.70;2.42;;;24.40;59.70;;;;;;4146239;28;20048;-58
2021/12/08 03:48:02;;;;;;;8.75;2.40;;;24.40;59.70;;;;;;4129675;28;20045;-59
2021/12/08 03:50:08;;;;;;;9.50;1.90;;;24.40;59.80;;;;;;4146820;28;20625;-58
2021/12/08 03:52:10;;;;;;;6.78;2.05;;;24.40;59.80;;;;;;4129882;28;20464;-58
2021/12/08 03:54:14;;;;;;;8.15;2.25;;;24.30;59.80;;;;;;4128067;28;20455;-59
2021/12/08 03:56:16;;;;;;;5.55;2.00;;;24.30;59.90;;;;;;4146581;28;20116;-59
2021/12/08 03:58:18;;;;;;;6.28;1.83;;;24.30;59.80;;;;;;4147512;28;20053;-58
2021/12/08 04:02:13;;;;;;;5.82;2.08;;;24.20;59.30;;;;;;4160757;27;20418;-60
2021/12/08 04:04:16;;;;;;;9.43;2.42;;;24.20;59.80;;;;;;4161121;28;20091;-60
2021/12/08 04:06:32;;;;;;;10.80;2.15;;;24.20;59.80;;;;;;4157440;28;20179;-60
2021/12/08 04:08:45;;;;;;;9.38;2.17;;;24.10;59.80;;;;;;4160313;28;20050;-59
2021/12/08 04:10:52;;;;;;;10.48;2.30;;;24.10;59.90;;;;;;4160473;28;20052;-59
2021/12/08 04:12:55;;;;;;;7.05;1.85;;;24.10;59.90;;;;;;4159024;28;20087;-60
2021/12/08 04:15:01;;;;;;;4.18;1.40;;;24.10;60.20;;;;;;4159620;28;20787;-59
2021/12/08 04:17:13;;;;;;;4.30;1.52;;;24.10;60.50;;;;;;4157218;28;20859;-61
2021/12/08 04:19:17;;;;;;;6.68;1.95;;;24.10;60.90;;;;;;4159218;28;20107;-60
2021/12/08 04:21:19;;;;;;;4.85;1.30;;;24.10;61.00;;;;;;4153857;28;20114;-62
2021/12/08 04:23:24;;;;;;;2.67;1.20;;;24.10;61.40;;;;;;4153985;28;20052;-62
2021/12/08 04:25:33;;;;;;;4.80;1.52;;;24.20;61.50;;;;;;4155612;28;20102;-59
2021/12/08 04:27:39;;;;;;;4.63;1.30;;;24.10;61.60;;;;;;4154404;28;20059;-58
2021/12/08 04:29:43;;;;;;;4.93;1.48;;;24.10;62.30;;;;;;4156974;28;20220;-59
2021/12/08 04:31:48;;;;;;;2.00;0.88;;;24.10;61.80;;;;;;4156032;28;20096;-61
2021/12/08 04:33:56;;;;;;;3.67;1.00;;;24.10;61.90;;;;;;4157239;28;20060;-61
2021/12/08 04:35:58;;;;;;;3.15;1.27;;;24.10;62.20;;;;;;4153958;28;20408;-62
2021/12/08 04:38:05;;;;;;;5.75;1.38;;;24.10;62.00;;;;;;4154534;28;20054;-58
2021/12/08 04:43:17;;;;;;;2.83;1.02;;;24.10;62.20;;;;;;4142431;28;20067;-62
2021/12/08 04:45:34;;;;;;;1.92;0.68;;;24.10;62.50;;;;;;4143391;28;20053;-61
2021/12/08 04:47:49;;;;;;;1.73;0.85;;;24.10;62.40;;;;;;4131356;28;20064;-61
2021/12/08 04:52:17;;;;;;;3.40;1.00;;;24.10;62.50;;;;;;4152865;28;20113;-60
2021/12/08 05:04:13;;;;;;;6.30;1.05;;;24.10;62.70;;;;;;4140957;28;20131;-59
2021/12/08 05:06:44;;;;;;;9.98;1.80;;;24.10;62.60;;;;;;4142649;28;20105;-59
2021/12/08 05:08:51;;;;;;;10.45;2.25;;;24.10;61.40;;;;;;4146330;28;20045;-59
2021/12/08 05:10:53;;;;;;;6.75;1.98;;;24.10;60.40;;;;;;4143479;28;20107;-59
2021/12/08 05:12:59;;;;;;;8.48;2.28;;;24.10;60.40;;;;;;4135904;28;20061;-61
2021/12/08 05:15:15;;;;;;;9.43;2.13;;;24.00;60.30;;;;;;4129371;28;20551;-56
2021/12/08 05:17:31;;;;;;;6.80;1.88;;;24.00;60.70;;;;;;4130510;28;21979;-59
2021/12/08 05:19:34;;;;;;;3.67;1.58;;;24.00;61.00;;;;;;4130935;28;20992;-55
2021/12/08 05:21:55;;;;;;;6.47;1.60;;;24.00;61.30;;;;;;4131017;28;20083;-58
2021/12/08 05:24:10;;;;;;;6.63;1.63;;;24.00;61.50;;;;;;4131170;28;20049;-60
2021/12/08 05:26:24;;;;;;;5.07;1.60;;;24.00;61.70;;;;;;4116647;28;20053;-59
2021/12/08 05:28:29;;;;;;;3.72;1.20;;;24.00;61.80;;;;;;4136661;28;20053;-58
2021/12/08 05:30:43;;;;;;;5.32;1.80;;;24.00;61.90;;;;;;4141262;28;20760;-58
2021/12/08 05:32:48;;;;;;;5.35;1.50;;;24.00;62.10;;;;;;4138493;28;20049;-56
2021/12/08 05:34:51;;;;;;;5.07;1.67;;;24.00;62.30;;;;;;4139060;28;20049;-55
2021/12/08 05:36:54;;;;;;;4.75;1.65;;;24.00;62.50;;;;;;4136137;28;20060;-55
2021/12/08 05:39:00;;;;;;;4.03;1.52;;;24.00;62.40;;;;;;4124181;28;20049;-58
2021/12/08 05:41:13;;;;;;;3.05;1.33;;;24.00;62.50;;;;;;4129069;28;20144;-55
2021/12/08 05:43:15;;;;;;;4.03;1.30;;;23.90;62.50;;;;;;4127719;28;20060;-53
2021/12/08 05:45:20;;;;;;;3.45;1.27;;;24.00;62.60;;;;;;4110643;28;20076;-54
2021/12/08 05:47:26;;;;;;;4.53;1.08;;;23.90;62.70;;;;;;4126810;28;20041;-56
2021/12/08 05:49:29;;;;;;;3.40;1.30;;;24.00;62.70;;;;;;4129144;28;20663;-56
2021/12/08 05:51:35;;;;;;;4.30;1.53;;;24.00;62.70;;;;;;4128214;28;20663;-52
2021/12/08 05:53:42;;;;;;;4.05;0.90;;;24.00;62.70;;;;;;4128535;28;20339;-58
2021/12/08 05:55:45;;;;;;;2.60;0.95;;;24.00;62.80;;;;;;4129365;28;20981;-56
2021/12/08 05:57:48;;;;;;;4.28;1.23;;;24.00;62.70;;;;;;4130230;28;20056;-58
2021/12/08 05:59:51;;;;;;;3.53;1.00;;;24.00;62.60;;;;;;4131697;28;20049;-56
2021/12/08 06:01:56;;;;;;;4.40;1.13;;;24.00;62.50;;;;;;4125357;28;20064;-58
2021/12/08 06:04:01;;;;;;;2.75;1.10;;;24.00;62.50;;;;;;4126980;28;20052;-59
2021/12/08 06:06:03;;;;;;;3.85;1.08;;;24.00;62.50;;;;;;4127052;28;20057;-57
2021/12/08 06:08:06;;;;;;;5.15;1.60;;;24.00;62.70;;;;;;4124442;28;20045;-59
2021/12/08 06:10:17;;;;;;;4.10;1.33;;;24.00;62.70;;;;;;4123970;28;20053;-54
2021/12/08 06:12:20;;;;;;;4.32;1.33;;;24.00;62.70;;;;;;4124769;28;20041;-56
2021/12/08 06:14:25;;;;;;;4.05;1.25;;;24.00;62.70;;;;;;4128071;28;20106;-54
2021/12/08 06:16:32;;;;;;;4.75;1.27;;;24.00;62.70;;;;;;4128256;28;21066;-56
2021/12/08 06:18:39;;;;;;;3.47;0.82;;;24.00;62.80;;;;;;4128197;28;20049;-55
2021/12/08 06:20:42;;;;;;;4.05;0.77;;;24.00;62.90;;;;;;4126968;28;20247;-57
2021/12/08 06:22:47;;;;;;;3.05;0.90;;;24.00;63.00;;;;;;4123528;28;20213;-57
2021/12/08 06:24:51;;;;;;;3.03;1.10;;;24.00;63.00;;;;;;4126240;28;20160;-57
2021/12/08 06:26:54;;;;;;;4.20;1.25;;;24.00;62.80;;;;;;4128375;28;20052;-55
2021/12/08 06:28:58;;;;;;;1.83;0.65;;;24.00;62.60;;;;;;4130837;28;22086;-57
2021/12/08 06:31:01;;;;;;;2.80;0.80;;;24.00;62.70;;;;;;4128856;28;20073;-56
2021/12/08 06:33:04;;;;;;;1.35;0.77;;;24.00;62.50;;;;;;4131407;28;20057;-56
2021/12/08 06:35:15;;;;;;;4.40;1.15;;;23.90;62.50;;;;;;4127309;28;20391;-56
2021/12/08 06:37:22;;;;;;;1.33;0.88;;;23.90;62.60;;;;;;4129234;28;20082;-54
2021/12/08 06:39:32;;;;;;;3.38;1.00;;;23.90;62.90;;;;;;4128190;28;20686;-57
2021/12/08 06:41:39;;;;;;;4.80;1.45;;;23.90;63.00;;;;;;4127691;28;20068;-54
2021/12/08 06:43:46;;;;;;;3.75;1.13;;;23.90;63.10;;;;;;4129431;28;20045;-56
2021/12/08 06:45:52;;;;;;;4.35;1.35;;;23.90;63.20;;;;;;4126892;28;20187;-54
2021/12/08 06:47:57;;;;;;;5.00;1.55;;;23.90;63.40;;;;;;4128716;28;20063;-54
2021/12/08 06:50:05;;;;;;;2.35;0.90;;;23.90;63.40;;;;;;4127864;28;20049;-57
2021/12/08 06:52:19;;;;;;;2.75;1.15;;;23.90;63.40;;;;;;4126838;28;20064;-57
2021/12/08 06:54:32;;;;;;;5.22;1.27;;;23.90;63.50;;;;;;4126167;28;21698;-58
2021/12/08 06:56:42;;;;;;;3.33;1.50;;;23.90;63.70;;;;;;4128411;28;20123;-57
2021/12/08 06:58:48;;;;;;;2.45;1.00;;;23.90;63.70;;;;;;4127691;28;20060;-58
2021/12/08 07:03:31;;;;;;;3.17;1.40;;;24.00;63.90;;;;;;4127015;28;20065;-57
2021/12/08 07:08:02;;;;;;;3.08;1.30;;;24.00;64.10;;;;;;4109105;28;20167;-55
2021/12/08 07:10:19;;;;;;;3.10;1.35;;;24.00;64.00;;;;;;4125848;28;20072;-56
2021/12/08 07:12:51;;;;;;;1.90;1.17;;;24.00;64.00;;;;;;4124771;28;20156;-52
2021/12/08 07:15:06;;;;;;;3.28;1.17;;;24.00;63.90;;;;;;4124528;28;20153;-53
2021/12/08 07:17:14;;;;;;;2.13;0.90;;;24.00;63.90;;;;;;4125910;28;20447;-53
2021/12/08 07:19:38;;;;;;;1.80;1.00;;;24.00;63.90;;;;;;4124619;28;20087;-53
2021/12/08 07:21:44;;;;;;;4.78;1.00;;;24.00;64.00;;;;;;4125728;28;20464;-56
2021/12/08 07:23:55;;;;;;;1.67;0.80;;;24.00;63.90;;;;;;4125466;28;20057;-57
2021/12/08 07:25:58;;;;;;;4.05;1.10;;;24.00;64.00;;;;;;4126202;28;20053;-56
2021/12/08 07:28:02;;;;;;;2.45;0.98;;;24.00;63.90;;;;;;4126503;28;20084;-54
2021/12/08 07:30:09;;;;;;;;;;;24.00;64.10;;;;;;4127887;28;20045;-50
2021/12/08 07:32:29;;;;;;;6.15;0.90;;;24.00;63.90;;;;;;4128204;28;20027;-56
2021/12/08 07:34:34;;;;;;;3.95;0.90;;;24.00;63.90;;;;;;4123120;28;20057;-51
2021/12/08 07:36:42;;;;;;;2.90;0.90;;;24.00;63.90;;;;;;4127843;28;20067;-54
2021/12/08 07:38:52;;;;;;;3.10;0.90;;;24.00;63.90;;;;;;4127548;28;20177;-53
2021/12/08 07:41:10;;;;;;;2.97;0.80;;;24.00;63.90;;;;;;4129932;28;21845;-54
2021/12/08 07:43:20;;;;;;;3.70;1.10;;;24.00;64.00;;;;;;4125162;28;20061;-56
2021/12/08 07:45:30;;;;;;;5.03;1.33;;;24.10;64.00;;;;;;4122824;28;20755;-57
2021/12/08 07:47:33;;;;;;;2.92;1.30;;;24.00;63.90;;;;;;4127828;28;20164;-54
2021/12/08 07:49:44;;;;;;;2.70;1.05;;;24.00;63.90;;;;;;4128455;28;20041;-57
2021/12/08 07:51:51;;;;;;;2.05;0.80;;;24.00;63.90;;;;;;4125108;28;20049;-56
2021/12/08 07:53:55;;;;;;;4.32;1.15;;;24.00;63.90;;;;;;4124834;28;20045;-51
2021/12/08 07:56:03;;;;;;;2.88;0.82;;;24.00;64.10;;;;;;4127286;28;20054;-56
2021/12/08 07:58:06;;;;;;;1.45;0.70;;;24.00;64.00;;;;;;4126796;28;20132;-54
2021/12/08 08:00:18;;;;;;;2.13;0.95;;;24.10;64.70;;;;;;4125830;28;20056;-53
2021/12/08 08:02:25;;;;;;;4.43;1.00;;;24.00;64.00;;;;;;4109394;28;20171;-55
2021/12/08 08:04:28;;;;;;;1.42;0.82;;;24.10;64.10;;;;;;4106009;28;20575;-53
2021/12/08 08:06:35;;;;;;;2.78;0.80;;;24.00;64.00;;;;;;4107847;28;20050;-50
2021/12/08 08:08:37;;;;;;;1.88;0.88;;;24.00;64.10;;;;;;4107823;28;20057;-57
2021/12/08 08:10:44;;;;;;;1.70;0.90;;;24.10;64.20;;;;;;4110199;28;20148;-54
2021/12/08 08:12:49;;;;;;;1.25;0.75;;;24.00;64.10;;;;;;4109927;28;20056;-53
2021/12/08 08:14:56;;;;;;;3.70;0.70;;;24.00;64.10;;;;;;4108335;28;20053;-56
2021/12/08 08:17:00;;;;;;;2.58;0.93;;;24.10;64.20;;;;;;4110344;28;20049;-54
2021/12/08 08:19:10;;;;;;;1.65;0.85;;;24.10;64.10;;;;;;4108480;28;20088;-59
2021/12/08 08:21:17;;;;;;;4.38;1.20;;;24.00;63.80;;;;;;4121246;28;20076;-58
2021/12/08 08:23:22;;;;;;;6.15;1.10;;;24.00;63.90;;;;;;4122235;28;20050;-57
2021/12/08 08:25:29;;;;;;;2.75;0.90;;;24.00;63.90;;;;;;4109612;28;20802;-58
2021/12/08 08:27:32;;;;;;;1.92;1.00;;;24.00;64.00;;;;;;4108823;28;20176;-57
2021/12/08 08:29:35;;;;;;;3.60;1.40;;;24.00;64.00;;;;;;4109131;28;20733;-58
2021/12/08 08:31:53;;;;;;;2.78;0.90;;;24.00;64.00;;;;;;4110097;28;20250;-57
2021/12/08 08:33:56;;;;;;;2.83;1.30;;;24.00;64.00;;;;;;4119975;28;20761;-58
2021/12/08 08:36:04;;;;;;;1.95;0.90;;;24.00;64.00;;;;;;4109592;28;20061;-58
2021/12/08 08:38:12;;;;;;;2.50;0.93;;;24.00;64.10;;;;;;4109923;28;20719;-55
2021/12/08 08:40:27;;;;;;;2.10;0.80;;;24.00;64.10;;;;;;4108617;28;20131;-57
2021/12/08 08:42:35;;;;;;;1.67;0.77;;;24.00;64.10;;;;;;4106927;28;21015;-59
2021/12/08 08:44:54;;;;;;;3.78;0.80;;;24.00;64.00;;;;;;4108458;28;20097;-56
2021/12/08 08:47:00;;;;;;;7.32;1.20;;;24.00;64.00;;;;;;4108134;28;20053;-57
2021/12/08 08:49:09;;;;;;;2.45;1.02;;;24.00;63.90;;;;;;4111480;28;20058;-58
2021/12/08 08:51:21;;;;;;;4.47;0.80;;;24.00;63.80;;;;;;4111320;28;20179;-52
2021/12/08 08:53:26;;;;;;;1.70;1.02;;;24.00;63.90;;;;;;4124291;28;22022;-55
2021/12/08 08:55:36;;;;;;;1.70;0.73;;;24.00;64.00;;;;;;4111903;28;20057;-58
2021/12/08 08:57:40;;;;;;;1.95;0.90;;;24.00;64.00;;;;;;4110088;28;20133;-59
2021/12/08 08:59:51;;;;;;;1.58;0.70;;;24.00;64.00;;;;;;4107831;28;20737;-56
2021/12/08 09:01:55;;;;;;;3.20;0.70;;;24.00;64.00;;;;;;4125168;28;20057;-58
2021/12/08 09:04:04;;;;;;;3.28;1.02;;;24.00;64.00;;;;;;4127237;28;20144;-58
2021/12/08 09:06:24;;;;;;;3.67;1.02;;;24.00;64.10;;;;;;4127912;28;20701;-57
2021/12/08 09:08:30;;;;;;;2.25;0.73;;;24.00;64.00;;;;;;4130103;28;20800;-57
2021/12/08 09:10:42;;;;;;;2.42;0.90;;;24.00;64.00;;;;;;4129489;28;20049;-55
2021/12/08 09:12:54;;;;;;;1.92;0.80;;;24.00;64.00;;;;;;4130920;28;20049;-55
2021/12/08 09:15:04;;;;;;;2.08;0.77;;;24.00;64.00;;;;;;4129948;28;20056;-58
2021/12/08 09:17:12;;;;;;;2.88;0.73;;;24.00;63.90;;;;;;4129729;28;20044;-56
2021/12/08 09:19:19;;;;;;;1.85;0.88;;;24.00;63.90;;;;;;4128078;28;20131;-58
2021/12/08 09:21:43;;;;;;;2.90;1.05;;;24.00;63.90;;;;;;4128279;28;20168;-55
2021/12/08 09:23:56;;;;;;;4.70;1.17;;;24.00;64.00;;;;;;4126717;28;20931;-53
2021/12/08 09:26:06;;;;;;;2.30;0.88;;;24.00;64.00;;;;;;4130137;28;20068;-55
2021/12/08 09:28:13;;;;;;;2.47;0.88;;;24.00;64.00;;;;;;4131121;28;20190;-57
2021/12/08 09:30:23;;;;;;;0.95;0.52;;;24.00;64.00;;;;;;4129371;28;20041;-55
2021/12/08 09:32:48;;;;;;;3.22;0.90;;;24.00;64.00;;;;;;4127234;28;20049;-52
2021/12/08 09:34:58;;;;;;;3.45;0.77;;;24.00;64.00;;;;;;4129699;28;20051;-55
2021/12/08 09:37:08;;;;;;;3.80;1.05;;;23.90;63.80;;;;;;4130872;28;20049;-57
2021/12/08 09:39:23;;;;;;;1.85;0.95;;;24.00;64.00;;;;;;4128733;28;20122;-53
2021/12/08 09:41:36;;;;;;;4.60;0.98;;;23.90;63.90;;;;;;4129766;28;20053;-53
2021/12/08 09:43:49;;;;;;;2.28;0.80;;;23.90;63.90;;;;;;4133096;28;20045;-54
2021/12/08 09:46:03;;;;;;;1.95;0.80;;;23.90;63.90;;;;;;4134599;28;20049;-49
2021/12/08 09:48:08;;;;;;;1.45;1.10;;;23.90;63.80;;;;;;4138962;28;20424;-56
2021/12/08 09:50:12;;;;;;;2.20;0.80;;;23.90;63.80;;;;;;4140086;28;20132;-56
2021/12/08 09:52:17;;;;;;;2.20;0.90;;;23.90;63.60;;;;;;4140374;28;20057;-53
2021/12/08 09:54:19;;;;;;;2.22;0.80;;;24.00;63.90;;;;;;4141388;28;20045;-57
2021/12/08 09:56:24;;;;;;;1.50;0.77;;;23.90;64.00;;;;;;4159329;28;20082;-55
2021/12/08 09:58:26;;;;;;;1.83;0.70;;;23.90;63.90;;;;;;4135327;28;20606;-54
2021/12/08 10:00:37;;;;;;;2.35;0.80;;;23.90;63.80;;;;;;4129008;28;20048;-51
2021/12/08 10:02:40;;;;;;;1.98;0.65;;;23.90;64.00;;;;;;4132005;28;20207;-56
2021/12/08 10:04:42;;;;;;;2.70;0.60;;;23.90;63.90;;;;;;4130126;28;20098;-54
2021/12/08 10:06:49;;;;;;;1.50;0.73;;;23.90;63.80;;;;;;4148272;28;20052;-53
2021/12/08 10:08:57;;;;;;;1.95;0.70;;;24.00;63.90;;;;;;4132088;28;20527;-57
2021/12/08 10:10:59;;;;;;;3.08;0.80;;;23.90;63.80;;;;;;4132702;28;22411;-53
2021/12/08 10:13:02;;;;;;;2.13;0.80;;;23.90;63.90;;;;;;4130280;28;20172;-55
2021/12/08 10:15:07;;;;;;;2.63;0.75;;;23.90;63.90;;;;;;4132243;28;20045;-56
2021/12/08 10:17:09;;;;;;;1.38;0.60;;;23.90;63.80;;;;;;4130552;28;20049;-51
2021/12/08 10:19:17;;;;;;;2.78;0.88;;;23.90;63.80;;;;;;4130921;28;20060;-51
2021/12/08 10:21:20;;;;;;;0.77;0.52;;;23.90;63.90;;;;;;4130540;28;20691;-54
2021/12/08 10:23:30;;;;;;;1.95;0.95;;;23.90;63.90;;;;;;4129065;28;20108;-53
2021/12/08 10:25:36;;;;;;;2.45;0.93;;;23.90;63.90;;;;;;4128209;28;20061;-56
2021/12/08 10:28:08;;;;;;;3.22;0.90;;;23.90;63.80;;;;;;4129431;28;20099;-55
2021/12/08 10:30:23;;;;;;;0.93;0.50;;;23.90;63.80;;;;;;4127210;28;20610;-53
2021/12/08 10:32:38;;;;;;;1.27;0.60;;;23.90;63.80;;;;;;4127687;28;20053;-55
2021/12/08 10:34:53;;;;;;;1.52;0.68;;;23.90;63.80;;;;;;4109254;28;20077;-55
2021/12/08 10:37:00;;;;;;;1.13;0.60;;;23.90;64.50;;;;;;4128173;28;20106;-48
2021/12/08 10:39:17;;;;;;;2.13;0.75;;;23.90;63.90;;;;;;4126681;28;20438;-52
2021/12/08 10:41:19;;;;;;;1.38;0.60;;;23.90;63.80;;;;;;4127338;28;22186;-54
2021/12/08 10:43:21;;;;;;;1.95;0.77;;;23.90;63.80;;;;;;4127253;28;20057;-56
2021/12/08 10:45:30;;;;;;;2.03;0.90;;;23.90;63.80;;;;;;4126072;28;20052;-55
2021/12/08 10:47:56;;;;;;;0.95;0.60;;;23.90;63.90;;;;;;4127474;28;21049;-57
2021/12/08 10:54:27;;;;;;;2.45;0.60;;;23.90;63.90;;;;;;4127255;28;20164;-54
2021/12/08 10:56:37;;;;;;;1.90;0.60;;;23.90;63.90;;;;;;4127386;28;20138;-55
2021/12/08 10:58:53;;;;;;;1.52;0.52;;;23.90;64.50;;;;;;4126985;28;20088;-56
2021/12/08 11:00:59;;;;;;;1.30;0.55;;;23.90;63.90;;;;;;4125601;28;20060;-54
2021/12/08 11:03:14;;;;;;;1.25;0.80;;;23.90;63.90;;;;;;4128011;28;20100;-57
2021/12/08 11:05:38;;;;;;;1.17;0.65;;;23.80;63.80;;;;;;4126049;28;20477;-56
2021/12/08 11:08:06;;;;;;;1.17;0.70;;;23.80;63.80;;;;;;4127638;28;20888;-54
2021/12/08 11:10:18;;;;;;;2.20;1.05;;;23.80;63.80;;;;;;4125627;28;20203;-54
2021/12/08 11:12:21;;;;;;;2.10;0.75;;;23.80;63.70;;;;;;4127198;28;20053;-53
2021/12/08 11:14:25;;;;;;;1.05;0.63;;;23.80;63.80;;;;;;4127425;28;20119;-54
2021/12/08 11:16:39;;;;;;;1.48;0.70;;;23.80;63.90;;;;;;4124830;28;20053;-54
2021/12/08 11:18:44;;;;;;;0.90;0.52;;;23.90;64.00;;;;;;4128665;28;20049;-53
2021/12/08 11:20:52;;;;;;;0.98;0.60;;;23.90;64.60;;;;;;4126537;28;21360;-52
2021/12/08 11:23:08;;;;;;;1.83;0.88;;;23.90;64.10;;;;;;4129127;28;20053;-54
2021/12/08 11:25:23;;;;;;;2.60;0.93;;;23.90;64.20;;;;;;4127085;28;20044;-53
2021/12/08 11:27:36;;;;;;;1.05;0.52;;;23.90;64.00;;;;;;4130495;28;20055;-56
2021/12/08 11:29:40;;;;;;;2.22;0.80;;;23.80;64.00;;;;;;4129789;28;20083;-59
2021/12/08 11:31:56;;;;;;;9.85;1.27;;;23.90;64.10;;;;;;4129090;28;20080;-58
2021/12/08 11:34:01;;;;;;;11.38;1.60;;;23.80;64.00;;;;;;4128511;28;22166;-62
2021/12/08 11:36:13;;;;;;;12.65;1.70;;;23.80;63.90;;;;;;4129303;28;20049;-51
2021/12/08 11:38:24;;;;;;;15.00;1.75;;;23.90;64.10;;;;;;4130998;28;20108;-60
2021/12/08 11:40:26;;;;;;;13.77;1.60;;;23.80;64.00;;;;;;4113086;28;20265;-60
2021/12/08 11:42:31;;;;;;;8.45;1.23;;;23.80;64.70;;;;;;4130526;28;20278;-59
2021/12/08 11:44:38;;;;;;;5.88;1.27;;;23.80;64.10;;;;;;4113563;28;20060;-57
2021/12/08 11:46:50;;;;;;;14.50;1.88;;;23.80;64.00;;;;;;4129819;28;20057;-52
2021/12/08 11:49:04;;;;;;;6.80;1.35;;;23.80;63.80;;;;;;4128677;28;20091;-55
2021/12/08 11:51:17;;;;;;;6.70;0.90;;;23.80;63.60;;;;;;4127025;28;20049;-48